York Springs, Pennsylvania
Current Conditions -  °F | °C
As of 10:53 PM on Tuesday 21 Oct 2014 (Local Time) from KTHV Reporting Station
Overcast Overcast  
Wind Chill: 51°   Ceiling: 10000
Heat Index: 51°   Visibility: 10mi
Dew Point: 50°   Wind: 3mph
Humidity: 96%   Direction: 290°WNW
Pressure: 29.92"   Gusts: NA
Location:  40.01°N, 77.12°W
Report Text: KTHV 220253Z AUTO 29003KT 10SM OVC100 11/10 A2992 RMK AO2 RAE09 SLP133 P0000 60003 T01060100 51012
Loading
Personal Weather Stations






























Interactive Weather Map
Tropical Storm Tracking
New forecast layout! Learn more

10-Day Weather Forecast

Advertisements
Track Severe Weather on mobile